Wetterdaten vom Dienstag, 15. Juni 2021

Temperatur Taupunkt Windchill Luftfeuchte Luftdruck Solarstrahlung Regen ET
(Verdunstung von Wasser)
Wind
Max 28.8 °C
15:40
16 °C
21:10
28.8 °C
15:40
92%
06:05
1014.7 hPa
08:20
928 W/m²
12:45
11.2 km/h
17:40 km/h
Durchschnitt 20.7 °C 12.5 °C 20.7 °C 63% 1013.3 hPa 462 W/m² 0 mm 5.334 mm 2.4 km/h
Min 9.4 °C
05:40
7.8 °C
05:40
9.4 °C
05:40
38%
15:35
1011.1 hPa
20:05
0 km/h (Böe)
00:00 km/h
Zeit
00:00 14.2 °C 10.6 °C 14.2 °C 79% 1014.5 hPa 0 W/m² 0.0 mm 0.000 mm 0.0 km/h
00:05 14.1 °C 10.7 °C 14.1 °C 80% 1014.5 hPa 0 W/m² 0.0 mm 0.000 mm 0.0 km/h
00:10 14.0 °C 10.6 °C 14.0 °C 80% 1014.6 hPa 0 W/m² 0.0 mm 0.000 mm 0.0 km/h
00:15 13.9 °C 10.7 °C 13.9 °C 81% 1014.6 hPa 0 W/m² 0.0 mm 0.000 mm 0.0 km/h
00:20 13.8 °C 10.6 °C 13.8 °C 81% 1014.6 hPa 0 W/m² 0.0 mm 0.000 mm 0.0 km/h
00:25 13.7 °C 10.5 °C 13.7 °C 81% 1014.5 hPa 0 W/m² 0.0 mm 0.000 mm 0.0 km/h
00:30 13.7 °C 10.5 °C 13.7 °C 81% 1014.6 hPa 0 W/m² 0.0 mm 0.000 mm 0.0 km/h
00:35 13.6 °C 10.4 °C 13.6 °C 81% 1014.5 hPa 0 W/m² 0.0 mm 0.000 mm 0.0 km/h
00:40 13.4 °C 10.4 °C 13.4 °C 82% 1014.5 hPa 0 W/m² 0.0 mm 0.000 mm 0.0 km/h
00:45 13.4 °C 10.4 °C 13.4 °C 82% 1014.6 hPa 0 W/m² 0.0 mm 0.000 mm 0.0 km/h
00:50 13.3 °C 10.3 °C 13.3 °C 82% 1014.5 hPa 0 W/m² 0.0 mm 0.000 mm 0.1 km/h
00:55 13.2 °C 10.4 °C 13.2 °C 83% 1014.4 hPa 0 W/m² 0.0 mm 0.000 mm 0.0 km/h
01:00 13.1 °C 10.5 °C 13.1 °C 84% 1014.4 hPa 0 W/m² 0.0 mm 0.025 mm 0.0 km/h
01:05 13.0 °C 10.2 °C 13.0 °C 83% 1014.3 hPa 0 W/m² 0.0 mm 0.000 mm 0.8 km/h
01:10 12.9 °C 10.3 °C 12.9 °C 84% 1014.4 hPa 0 W/m² 0.0 mm 0.000 mm 0.6 km/h
01:15 12.8 °C 10.2 °C 12.8 °C 84% 1014.4 hPa 0 W/m² 0.0 mm 0.000 mm 0.0 km/h
01:20 12.8 °C 10.2 °C 12.8 °C 84% 1014.4 hPa 0 W/m² 0.0 mm 0.000 mm 0.0 km/h
01:25 12.7 °C 10.1 °C 12.7 °C 84% 1014.4 hPa 0 W/m² 0.0 mm 0.000 mm 0.0 km/h
01:30 12.6 °C 10.0 °C 12.6 °C 84% 1014.4 hPa 0 W/m² 0.0 mm 0.000 mm 0.0 km/h
01:35 12.5 °C 9.9 °C 12.5 °C 84% 1014.3 hPa 0 W/m² 0.0 mm 0.000 mm 0.1 km/h
01:40 12.3 °C 9.7 °C 12.3 °C 84% 1014.3 hPa 0 W/m² 0.0 mm 0.000 mm 1.6 km/h
01:45 12.3 °C 9.9 °C 12.3 °C 85% 1014.3 hPa 0 W/m² 0.0 mm 0.000 mm 0.1 km/h
01:50 12.1 °C 9.5 °C 12.1 °C 84% 1014.3 hPa 0 W/m² 0.0 mm 0.000 mm 0.0 km/h
01:55 12.0 °C 9.6 °C 12.0 °C 85% 1014.2 hPa 0 W/m² 0.0 mm 0.000 mm 0.0 km/h
02:00 11.9 °C 9.5 °C 11.9 °C 85% 1014.2 hPa 0 W/m² 0.0 mm 0.000 mm 0.0 km/h
02:05 11.8 °C 9.4 °C 11.8 °C 85% 1014.2 hPa 0 W/m² 0.0 mm 0.000 mm 0.0 km/h
02:10 11.7 °C 9.4 °C 11.7 °C 86% 1014.2 hPa 0 W/m² 0.0 mm 0.000 mm 0.0 km/h
02:15 11.6 °C 9.3 °C 11.6 °C 86% 1014.2 hPa 0 W/m² 0.0 mm 0.000 mm 0.0 km/h
02:20 11.4 °C 9.3 °C 11.4 °C 87% 1014.2 hPa 0 W/m² 0.0 mm 0.000 mm 0.0 km/h
02:25 11.4 °C 9.3 °C 11.4 °C 87% 1014.2 hPa 0 W/m² 0.0 mm 0.000 mm 0.1 km/h
02:30 11.4 °C 9.3 °C 11.4 °C 87% 1014.2 hPa 0 W/m² 0.0 mm 0.000 mm 0.0 km/h
02:35 11.3 °C 9.2 °C 11.3 °C 87% 1014.0 hPa 0 W/m² 0.0 mm 0.000 mm 0.0 km/h
02:40 11.3 °C 9.2 °C 11.3 °C 87% 1014.1 hPa 0 W/m² 0.0 mm 0.000 mm 0.0 km/h
02:45 11.2 °C 8.9 °C 11.2 °C 86% 1014.1 hPa 0 W/m² 0.0 mm 0.000 mm 0.0 km/h
02:50 11.0 °C 8.9 °C 11.0 °C 87% 1014.2 hPa 0 W/m² 0.0 mm 0.000 mm 0.0 km/h
02:55 10.9 °C 8.8 °C 10.9 °C 87% 1014.1 hPa 0 W/m² 0.0 mm 0.000 mm 0.0 km/h
03:00 10.9 °C 8.8 °C 10.9 °C 87% 1014.1 hPa 0 W/m² 0.0 mm 0.000 mm 0.0 km/h
03:05 10.8 °C 8.9 °C 10.8 °C 88% 1014.1 hPa 0 W/m² 0.0 mm 0.000 mm 1.6 km/h
03:10 10.7 °C 8.8 °C 10.7 °C 88% 1014.1 hPa 0 W/m² 0.0 mm 0.000 mm 2.0 km/h
03:15 10.7 °C 8.6 °C 10.7 °C 87% 1014.1 hPa 0 W/m² 0.0 mm 0.000 mm 0.0 km/h
03:20 10.6 °C 8.7 °C 10.6 °C 88% 1014.1 hPa 0 W/m² 0.0 mm 0.000 mm 0.0 km/h
03:25 10.4 °C 8.5 °C 10.4 °C 88% 1014.1 hPa 0 W/m² 0.0 mm 0.000 mm 0.0 km/h
03:30 10.4 °C 8.7 °C 10.4 °C 89% 1014.1 hPa 0 W/m² 0.0 mm 0.000 mm 1.9 km/h
03:35 10.4 °C 8.7 °C 10.4 °C 89% 1014.1 hPa 0 W/m² 0.0 mm 0.000 mm 0.0 km/h
03:40 10.5 °C 8.9 °C 10.5 °C 90% 1014.1 hPa 0 W/m² 0.0 mm 0.000 mm 0.0 km/h
03:45 10.4 °C 8.8 °C 10.4 °C 90% 1014.1 hPa 0 W/m² 0.0 mm 0.000 mm 0.0 km/h
03:50 10.4 °C 8.8 °C 10.4 °C 90% 1014.2 hPa 0 W/m² 0.0 mm 0.000 mm 0.0 km/h
03:55 10.4 °C 8.8 °C 10.4 °C 90% 1014.1 hPa 0 W/m² 0.0 mm 0.000 mm 0.0 km/h
04:00 10.3 °C 8.7 °C 10.3 °C 90% 1014.1 hPa 0 W/m² 0.0 mm 0.000 mm 0.0 km/h
04:05 10.2 °C 8.5 °C 10.2 °C 89% 1014.1 hPa 0 W/m² 0.0 mm 0.000 mm 0.0 km/h
04:10 10.1 °C 8.4 °C 10.1 °C 89% 1014.1 hPa 0 W/m² 0.0 mm 0.000 mm 0.0 km/h
04:15 9.9 °C 8.2 °C 9.9 °C 89% 1014.0 hPa 0 W/m² 0.0 mm 0.000 mm 0.0 km/h
04:20 9.9 °C 8.2 °C 9.9 °C 89% 1014.0 hPa 0 W/m² 0.0 mm 0.000 mm 0.0 km/h
04:25 9.9 °C 8.2 °C 9.9 °C 89% 1014.1 hPa 0 W/m² 0.0 mm 0.000 mm 1.0 km/h
04:30 9.8 °C 8.1 °C 9.8 °C 89% 1014.1 hPa 0 W/m² 0.0 mm 0.000 mm 0.0 km/h
04:35 9.8 °C 8.2 °C 9.8 °C 90% 1014.1 hPa 0 W/m² 0.0 mm 0.000 mm 0.0 km/h
04:40 9.8 °C 8.2 °C 9.8 °C 90% 1014.2 hPa 0 W/m² 0.0 mm 0.000 mm 0.0 km/h
04:45 9.8 °C 8.2 °C 9.8 °C 90% 1014.2 hPa 0 W/m² 0.0 mm 0.000 mm 0.6 km/h
04:50 9.8 °C 8.2 °C 9.8 °C 90% 1014.2 hPa 0 W/m² 0.0 mm 0.000 mm 0.2 km/h
04:55 9.8 °C 8.2 °C 9.8 °C 90% 1014.3 hPa 0 W/m² 0.0 mm 0.000 mm 0.9 km/h
05:00 9.8 °C 8.2 °C 9.8 °C 90% 1014.2 hPa 0 W/m² 0.0 mm 0.000 mm 0.0 km/h
05:05 9.7 °C 8.1 °C 9.7 °C 90% 1014.1 hPa 0 W/m² 0.0 mm 0.000 mm 0.0 km/h
05:10 9.7 °C 8.1 °C 9.7 °C 90% 1014.2 hPa 0 W/m² 0.0 mm 0.000 mm 0.0 km/h
05:15 9.6 °C 8.2 °C 9.6 °C 91% 1014.2 hPa 0 W/m² 0.0 mm 0.000 mm 0.1 km/h
05:20 9.6 °C 8.2 °C 9.6 °C 91% 1014.2 hPa 4 W/m² 0.0 mm 0.000 mm 0.3 km/h
05:25 9.6 °C 8.2 °C 9.6 °C 91% 1014.2 hPa 6 W/m² 0.0 mm 0.000 mm 0.1 km/h
05:30 9.5 °C 8.1 °C 9.5 °C 91% 1014.2 hPa 8 W/m² 0.0 mm 0.000 mm 0.1 km/h
05:35 9.5 °C 7.9 °C 9.5 °C 90% 1014.2 hPa 10 W/m² 0.0 mm 0.000 mm 0.0 km/h
05:40 9.4 °C 7.8 °C 9.4 °C 90% 1014.2 hPa 12 W/m² 0.0 mm 0.000 mm 0.0 km/h
05:45 9.4 °C 8.0 °C 9.4 °C 91% 1014.2 hPa 19 W/m² 0.0 mm 0.000 mm 0.0 km/h
05:50 9.4 °C 8.0 °C 9.4 °C 91% 1014.3 hPa 27 W/m² 0.0 mm 0.000 mm 0.0 km/h
05:55 9.6 °C 8.2 °C 9.6 °C 91% 1014.3 hPa 30 W/m² 0.0 mm 0.000 mm 0.1 km/h
06:00 9.6 °C 8.2 °C 9.6 °C 91% 1014.3 hPa 36 W/m² 0.0 mm 0.000 mm 0.0 km/h
06:05 9.8 °C 8.6 °C 9.8 °C 92% 1014.3 hPa 45 W/m² 0.0 mm 0.000 mm 0.0 km/h
06:10 10.0 °C 8.6 °C 10.0 °C 91% 1014.5 hPa 64 W/m² 0.0 mm 0.000 mm 0.0 km/h
06:15 10.3 °C 8.7 °C 10.3 °C 90% 1014.4 hPa 74 W/m² 0.0 mm 0.000 mm 0.0 km/h
06:20 10.6 °C 8.9 °C 10.6 °C 89% 1014.5 hPa 79 W/m² 0.0 mm 0.000 mm 0.0 km/h
06:25 10.9 °C 9.0 °C 10.9 °C 88% 1014.4 hPa 70 W/m² 0.0 mm 0.000 mm 0.0 km/h
06:30 11.1 °C 8.7 °C 11.1 °C 85% 1014.4 hPa 83 W/m² 0.0 mm 0.000 mm 0.0 km/h
06:35 11.1 °C 8.7 °C 11.1 °C 85% 1014.5 hPa 91 W/m² 0.0 mm 0.000 mm 0.0 km/h
06:40 11.3 °C 8.9 °C 11.3 °C 85% 1014.5 hPa 127 W/m² 0.0 mm 0.000 mm 0.2 km/h
06:45 11.7 °C 9.3 °C 11.7 °C 85% 1014.5 hPa 135 W/m² 0.0 mm 0.000 mm 0.0 km/h
06:50 12.1 °C 9.7 °C 12.1 °C 85% 1014.5 hPa 161 W/m² 0.0 mm 0.000 mm 0.0 km/h
06:55 12.7 °C 10.2 °C 12.7 °C 85% 1014.6 hPa 179 W/m² 0.0 mm 0.000 mm 0.0 km/h
07:00 13.2 °C 10.7 °C 13.2 °C 85% 1014.5 hPa 177 W/m² 0.0 mm 0.051 mm 0.0 km/h
07:05 13.7 °C 10.9 °C 13.7 °C 83% 1014.5 hPa 208 W/m² 0.0 mm 0.000 mm 0.0 km/h
07:10 14.4 °C 11.2 °C 14.4 °C 81% 1014.5 hPa 228 W/m² 0.0 mm 0.000 mm 0.0 km/h
07:15 14.9 °C 11.3 °C 14.9 °C 79% 1014.5 hPa 239 W/m² 0.0 mm 0.000 mm 0.0 km/h
07:20 15.3 °C 11.7 °C 15.3 °C 79% 1014.5 hPa 252 W/m² 0.0 mm 0.000 mm 0.0 km/h
07:25 15.6 °C 11.4 °C 15.6 °C 76% 1014.5 hPa 266 W/m² 0.0 mm 0.000 mm 0.0 km/h
07:30 15.8 °C 11.6 °C 15.8 °C 76% 1014.5 hPa 275 W/m² 0.0 mm 0.000 mm 0.0 km/h
07:35 16.2 °C 12.0 °C 16.2 °C 76% 1014.5 hPa 259 W/m² 0.0 mm 0.000 mm 0.0 km/h
07:40 16.6 °C 12.5 °C 16.6 °C 77% 1014.6 hPa 255 W/m² 0.0 mm 0.000 mm 0.0 km/h
07:45 17.1 °C 12.8 °C 17.1 °C 76% 1014.5 hPa 290 W/m² 0.0 mm 0.000 mm 0.0 km/h
07:50 17.4 °C 12.7 °C 17.4 °C 74% 1014.6 hPa 321 W/m² 0.0 mm 0.000 mm 0.0 km/h
07:55 17.9 °C 13.2 °C 17.9 °C 74% 1014.6 hPa 339 W/m² 0.0 mm 0.000 mm 0.0 km/h
08:00 18.4 °C 13.5 °C 18.4 °C 73% 1014.6 hPa 345 W/m² 0.0 mm 0.153 mm 0.1 km/h
08:05 18.8 °C 13.6 °C 18.8 °C 72% 1014.5 hPa 336 W/m² 0.0 mm 0.000 mm 0.0 km/h
08:10 19.1 °C 13.5 °C 19.1 °C 70% 1014.4 hPa 378 W/m² 0.0 mm 0.000 mm 0.2 km/h
08:15 19.3 °C 13.7 °C 19.3 °C 70% 1014.5 hPa 394 W/m² 0.0 mm 0.000 mm 0.3 km/h
08:20 19.4 °C 12.9 °C 19.4 °C 66% 1014.7 hPa 392 W/m² 0.0 mm 0.000 mm 0.2 km/h
08:25 19.7 °C 12.9 °C 19.7 °C 65% 1014.7 hPa 410 W/m² 0.0 mm 0.000 mm 0.1 km/h
08:30 19.8 °C 12.8 °C 19.8 °C 64% 1014.6 hPa 422 W/m² 0.0 mm 0.000 mm 1.0 km/h
08:35 19.9 °C 12.9 °C 19.9 °C 64% 1014.7 hPa 418 W/m² 0.0 mm 0.000 mm 0.2 km/h
08:40 20.2 °C 14.1 °C 20.2 °C 68% 1014.7 hPa 420 W/m² 0.0 mm 0.000 mm 0.3 km/h
08:45 20.3 °C 13.7 °C 20.3 °C 66% 1014.7 hPa 451 W/m² 0.0 mm 0.000 mm 1.2 km/h
08:50 20.6 °C 14.3 °C 20.6 °C 67% 1014.7 hPa 461 W/m² 0.0 mm 0.000 mm 0.5 km/h
08:55 21.1 °C 14.7 °C 21.1 °C 67% 1014.6 hPa 451 W/m² 0.0 mm 0.000 mm 0.3 km/h
09:00 21.4 °C 14.1 °C 21.4 °C 63% 1014.6 hPa 415 W/m² 0.0 mm 0.254 mm 0.6 km/h
09:05 21.7 °C 14.8 °C 21.7 °C 65% 1014.6 hPa 474 W/m² 0.0 mm 0.000 mm 0.0 km/h
09:10 22.1 °C 14.5 °C 22.1 °C 62% 1014.6 hPa 533 W/m² 0.0 mm 0.000 mm 0.0 km/h
09:15 22.3 °C 14.9 °C 22.3 °C 63% 1014.5 hPa 557 W/m² 0.0 mm 0.000 mm 0.0 km/h
09:20 22.6 °C 13.6 °C 22.6 °C 57% 1014.4 hPa 548 W/m² 0.0 mm 0.000 mm 0.0 km/h
09:25 22.9 °C 13.4 °C 22.9 °C 55% 1014.4 hPa 580 W/m² 0.0 mm 0.000 mm 0.7 km/h
09:30 23.3 °C 14.0 °C 23.3 °C 56% 1014.4 hPa 586 W/m² 0.0 mm 0.000 mm 0.3 km/h
09:35 23.6 °C 12.9 °C 23.6 °C 51% 1014.4 hPa 573 W/m² 0.0 mm 0.000 mm 0.0 km/h
09:40 23.7 °C 13.5 °C 23.7 °C 53% 1014.4 hPa 502 W/m² 0.0 mm 0.000 mm 0.0 km/h
09:45 23.7 °C 14.4 °C 23.7 °C 56% 1014.3 hPa 562 W/m² 0.0 mm 0.000 mm 0.0 km/h
09:50 23.7 °C 14.4 °C 23.7 °C 56% 1014.3 hPa 498 W/m² 0.0 mm 0.000 mm 1.1 km/h
09:55 23.5 °C 14.2 °C 23.5 °C 56% 1014.3 hPa 543 W/m² 0.0 mm 0.000 mm 2.8 km/h
10:00 23.5 °C 13.9 °C 23.5 °C 55% 1014.3 hPa 617 W/m² 0.0 mm 0.330 mm 2.9 km/h
10:05 23.4 °C 14.7 °C 23.4 °C 58% 1014.2 hPa 595 W/m² 0.0 mm 0.000 mm 2.1 km/h
10:10 23.7 °C 14.9 °C 23.7 °C 58% 1014.3 hPa 582 W/m² 0.0 mm 0.000 mm 1.7 km/h
10:15 24.2 °C 15.4 °C 24.2 °C 58% 1014.2 hPa 637 W/m² 0.0 mm 0.000 mm 0.1 km/h
10:20 24.7 °C 15.0 °C 24.7 °C 55% 1014.1 hPa 641 W/m² 0.0 mm 0.000 mm 1.0 km/h
10:25 24.7 °C 15.9 °C 24.7 °C 58% 1014.2 hPa 662 W/m² 0.0 mm 0.000 mm 2.9 km/h
10:30 24.9 °C 14.4 °C 24.9 °C 52% 1014.2 hPa 619 W/m² 0.0 mm 0.000 mm 1.4 km/h
10:35 24.9 °C 14.1 °C 24.9 °C 51% 1014.2 hPa 641 W/m² 0.0 mm 0.000 mm 3.3 km/h
10:40 25.1 °C 14.2 °C 25.1 °C 51% 1014.2 hPa 604 W/m² 0.0 mm 0.000 mm 2.5 km/h
10:45 24.9 °C 13.7 °C 24.9 °C 50% 1014.2 hPa 581 W/m² 0.0 mm 0.000 mm 3.0 km/h
10:50 25.1 °C 15.7 °C 25.1 °C 56% 1014.3 hPa 617 W/m² 0.0 mm 0.000 mm 2.2 km/h
10:55 25.4 °C 15.1 °C 25.4 °C 53% 1014.3 hPa 629 W/m² 0.0 mm 0.000 mm 1.0 km/h
11:00 25.5 °C 14.9 °C 25.5 °C 52% 1014.3 hPa 587 W/m² 0.0 mm 0.406 mm 0.7 km/h
11:05 25.5 °C 15.5 °C 25.5 °C 54% 1014.3 hPa 596 W/m² 0.0 mm 0.000 mm 2.8 km/h
11:10 25.6 °C 14.4 °C 25.6 °C 50% 1014.2 hPa 581 W/m² 0.0 mm 0.000 mm 2.6 km/h
11:15 25.5 °C 14.9 °C 25.5 °C 52% 1014.2 hPa 679 W/m² 0.0 mm 0.000 mm 4.8 km/h
11:20 25.5 °C 14.0 °C 25.5 °C 49% 1014.2 hPa 730 W/m² 0.0 mm 0.000 mm 3.7 km/h
11:25 25.5 °C 14.3 °C 25.5 °C 50% 1014.1 hPa 708 W/m² 0.0 mm 0.000 mm 5.4 km/h
11:30 25.6 °C 15.0 °C 25.6 °C 52% 1014.0 hPa 671 W/m² 0.0 mm 0.000 mm 4.8 km/h
11:35 25.6 °C 15.0 °C 25.6 °C 52% 1014.0 hPa 654 W/m² 0.0 mm 0.000 mm 4.9 km/h
11:40 25.5 °C 14.3 °C 25.5 °C 50% 1013.9 hPa 602 W/m² 0.0 mm 0.000 mm 4.8 km/h
11:45 25.7 °C 13.9 °C 25.7 °C 48% 1013.9 hPa 653 W/m² 0.0 mm 0.000 mm 4.9 km/h
11:50 25.7 °C 13.9 °C 25.7 °C 48% 1013.9 hPa 700 W/m² 0.0 mm 0.000 mm 5.7 km/h
11:55 25.7 °C 13.5 °C 25.7 °C 47% 1013.9 hPa 795 W/m² 0.0 mm 0.000 mm 4.6 km/h
12:00 25.8 °C 13.9 °C 25.8 °C 48% 1013.9 hPa 598 W/m² 0.0 mm 0.457 mm 4.2 km/h
12:05 25.9 °C 14.0 °C 25.9 °C 48% 1013.9 hPa 691 W/m² 0.0 mm 0.000 mm 4.6 km/h
12:10 26.1 °C 13.9 °C 25.9 °C 47% 1013.9 hPa 822 W/m² 0.0 mm 0.000 mm 7.4 km/h
12:15 26.1 °C 14.2 °C 25.7 °C 48% 1013.9 hPa 787 W/m² 0.0 mm 0.000 mm 8.2 km/h
12:20 26.1 °C 13.6 °C 25.7 °C 46% 1013.7 hPa 729 W/m² 0.0 mm 0.000 mm 8.3 km/h
12:25 26.1 °C 13.6 °C 25.6 °C 46% 1014.0 hPa 682 W/m² 0.0 mm 0.000 mm 8.8 km/h
12:30 26.2 °C 14.0 °C 26.2 °C 47% 1014.0 hPa 843 W/m² 0.0 mm 0.000 mm 4.7 km/h
12:35 26.3 °C 13.1 °C 26.3 °C 44% 1013.9 hPa 740 W/m² 0.0 mm 0.000 mm 6.5 km/h
12:40 26.4 °C 13.1 °C 26.4 °C 44% 1013.9 hPa 819 W/m² 0.0 mm 0.000 mm 6.0 km/h
12:45 26.5 °C 13.6 °C 26.0 °C 45% 1013.9 hPa 928 W/m² 0.0 mm 0.000 mm 8.9 km/h
12:50 26.7 °C 15.1 °C 26.7 °C 49% 1013.8 hPa 895 W/m² 0.0 mm 0.000 mm 3.3 km/h
12:55 26.8 °C 14.2 °C 26.8 °C 46% 1013.7 hPa 910 W/m² 0.0 mm 0.000 mm 5.2 km/h
13:00 27.0 °C 13.7 °C 26.8 °C 44% 1013.8 hPa 859 W/m² 0.0 mm 0.585 mm 7.6 km/h
13:05 27.2 °C 14.6 °C 27.2 °C 46% 1013.6 hPa 732 W/m² 0.0 mm 0.000 mm 2.1 km/h
13:10 27.5 °C 15.2 °C 27.5 °C 47% 1013.6 hPa 880 W/m² 0.0 mm 0.000 mm 1.4 km/h
13:15 27.7 °C 14.3 °C 27.7 °C 44% 1013.6 hPa 890 W/m² 0.0 mm 0.000 mm 5.3 km/h
13:20 27.8 °C 12.9 °C 27.7 °C 40% 1013.6 hPa 874 W/m² 0.0 mm 0.000 mm 7.0 km/h
13:25 27.9 °C 13.0 °C 27.9 °C 40% 1013.5 hPa 874 W/m² 0.0 mm 0.000 mm 5.8 km/h
13:30 27.7 °C 12.9 °C 27.4 °C 40% 1013.5 hPa 872 W/m² 0.0 mm 0.000 mm 8.2 km/h
13:35 27.6 °C 13.5 °C 27.3 °C 42% 1013.5 hPa 874 W/m² 0.0 mm 0.000 mm 8.5 km/h
13:40 27.4 °C 12.2 °C 27.1 °C 39% 1013.5 hPa 868 W/m² 0.0 mm 0.000 mm 8.0 km/h
13:45 27.7 °C 13.2 °C 27.7 °C 41% 1013.3 hPa 869 W/m² 0.0 mm 0.000 mm 5.0 km/h
13:50 27.5 °C 12.7 °C 27.0 °C 40% 1013.4 hPa 873 W/m² 0.0 mm 0.000 mm 9.6 km/h
13:55 27.4 °C 13.3 °C 27.4 °C 42% 1013.3 hPa 872 W/m² 0.0 mm 0.000 mm 6.2 km/h
14:00 27.5 °C 13.4 °C 27.2 °C 42% 1013.3 hPa 865 W/m² 0.0 mm 0.609 mm 8.3 km/h
14:05 27.7 °C 14.7 °C 27.7 °C 45% 1013.2 hPa 867 W/m² 0.0 mm 0.000 mm 3.6 km/h
14:10 27.8 °C 13.7 °C 27.5 °C 42% 1013.1 hPa 866 W/m² 0.0 mm 0.000 mm 8.1 km/h
14:15 27.8 °C 12.6 °C 27.4 °C 39% 1013.2 hPa 869 W/m² 0.0 mm 0.000 mm 9.0 km/h
14:20 27.8 °C 12.9 °C 27.8 °C 40% 1013.2 hPa 864 W/m² 0.0 mm 0.000 mm 5.0 km/h
14:25 27.8 °C 12.6 °C 27.2 °C 39% 1013.1 hPa 823 W/m² 0.0 mm 0.000 mm 10.2 km/h
14:30 27.6 °C 12.8 °C 27.5 °C 40% 1013.1 hPa 778 W/m² 0.0 mm 0.000 mm 7.0 km/h
14:35 27.8 °C 13.7 °C 27.7 °C 42% 1013.1 hPa 808 W/m² 0.0 mm 0.000 mm 7.1 km/h
14:40 27.9 °C 13.0 °C 27.8 °C 40% 1013.0 hPa 837 W/m² 0.0 mm 0.000 mm 6.9 km/h
14:45 28.0 °C 13.5 °C 27.6 °C 41% 1013.0 hPa 759 W/m² 0.0 mm 0.000 mm 9.1 km/h
14:50 27.9 °C 12.6 °C 27.9 °C 39% 1012.9 hPa 869 W/m² 0.0 mm 0.000 mm 5.9 km/h
14:55 27.9 °C 14.1 °C 27.9 °C 43% 1013.0 hPa 871 W/m² 0.0 mm 0.000 mm 2.4 km/h
15:00 28.3 °C 14.5 °C 28.3 °C 43% 1012.8 hPa 816 W/m² 0.0 mm 0.610 mm 3.1 km/h
15:05 28.3 °C 13.8 °C 28.3 °C 41% 1012.8 hPa 790 W/m² 0.0 mm 0.000 mm 4.9 km/h
15:10 28.4 °C 13.9 °C 28.3 °C 41% 1012.7 hPa 822 W/m² 0.0 mm 0.000 mm 7.0 km/h
15:15 28.1 °C 13.6 °C 27.9 °C 41% 1012.8 hPa 802 W/m² 0.0 mm 0.000 mm 8.0 km/h
15:20 28.1 °C 13.6 °C 28.1 °C 41% 1012.8 hPa 793 W/m² 0.0 mm 0.000 mm 5.8 km/h
15:25 28.4 °C 13.1 °C 28.4 °C 39% 1012.7 hPa 779 W/m² 0.0 mm 0.000 mm 2.5 km/h
15:30 28.6 °C 13.3 °C 28.6 °C 39% 1012.7 hPa 766 W/m² 0.0 mm 0.000 mm 2.8 km/h
15:35 28.6 °C 12.9 °C 28.6 °C 38% 1012.6 hPa 758 W/m² 0.0 mm 0.000 mm 4.5 km/h
15:40 28.8 °C 14.2 °C 28.8 °C 41% 1012.5 hPa 756 W/m² 0.0 mm 0.000 mm 1.0 km/h
15:45 28.8 °C 13.4 °C 28.7 °C 39% 1012.6 hPa 751 W/m² 0.0 mm 0.000 mm 7.4 km/h
15:50 28.6 °C 13.3 °C 28.6 °C 39% 1012.7 hPa 741 W/m² 0.0 mm 0.000 mm 3.8 km/h
15:55 28.7 °C 14.1 °C 28.7 °C 41% 1012.7 hPa 733 W/m² 0.0 mm 0.000 mm 5.3 km/h
16:00 28.7 °C 13.7 °C 28.5 °C 40% 1012.6 hPa 724 W/m² 0.0 mm 0.559 mm 7.8 km/h
16:05 28.4 °C 12.7 °C 28.1 °C 38% 1012.6 hPa 704 W/m² 0.0 mm 0.000 mm 8.6 km/h
16:10 28.3 °C 13.0 °C 28.0 °C 39% 1012.5 hPa 679 W/m² 0.0 mm 0.000 mm 8.3 km/h
16:15 28.2 °C 13.3 °C 28.2 °C 40% 1012.6 hPa 671 W/m² 0.0 mm 0.000 mm 5.6 km/h
16:20 28.4 °C 14.2 °C 28.4 °C 42% 1012.7 hPa 681 W/m² 0.0 mm 0.000 mm 2.7 km/h
16:25 28.6 °C 14.4 °C 28.6 °C 42% 1012.5 hPa 670 W/m² 0.0 mm 0.000 mm 1.5 km/h
16:30 28.6 °C 13.3 °C 28.3 °C 39% 1012.6 hPa 657 W/m² 0.0 mm 0.000 mm 8.8 km/h
16:35 28.4 °C 13.5 °C 28.4 °C 40% 1012.5 hPa 646 W/m² 0.0 mm 0.000 mm 5.7 km/h
16:40 28.4 °C 13.1 °C 28.4 °C 39% 1012.4 hPa 630 W/m² 0.0 mm 0.000 mm 2.6 km/h
16:45 28.4 °C 13.5 °C 28.4 °C 40% 1012.4 hPa 624 W/m² 0.0 mm 0.000 mm 4.7 km/h
16:50 28.3 °C 13.4 °C 28.3 °C 40% 1012.2 hPa 611 W/m² 0.0 mm 0.000 mm 5.0 km/h
16:55 28.4 °C 13.5 °C 28.4 °C 40% 1012.2 hPa 600 W/m² 0.0 mm 0.000 mm 5.5 km/h
17:00 28.3 °C 13.0 °C 28.0 °C 39% 1012.2 hPa 588 W/m² 0.0 mm 0.482 mm 8.7 km/h
17:05 28.2 °C 13.7 °C 27.9 °C 41% 1012.0 hPa 577 W/m² 0.0 mm 0.000 mm 8.6 km/h
17:10 28.1 °C 13.2 °C 27.6 °C 40% 1012.1 hPa 572 W/m² 0.0 mm 0.000 mm 9.9 km/h
17:15 28.1 °C 13.2 °C 27.9 °C 40% 1012.1 hPa 565 W/m² 0.0 mm 0.000 mm 7.6 km/h
17:20 28.2 °C 13.3 °C 28.2 °C 40% 1011.9 hPa 540 W/m² 0.0 mm 0.000 mm 4.8 km/h
17:25 28.2 °C 12.9 °C 28.2 °C 39% 1011.8 hPa 531 W/m² 0.0 mm 0.000 mm 6.0 km/h
17:30 28.2 °C 13.3 °C 28.2 °C 40% 1011.7 hPa 526 W/m² 0.0 mm 0.000 mm 4.3 km/h
17:35 28.2 °C 13.7 °C 28.2 °C 41% 1011.8 hPa 489 W/m² 0.0 mm 0.000 mm 6.2 km/h
17:40 27.9 °C 13.0 °C 27.2 °C 40% 1011.7 hPa 488 W/m² 0.0 mm 0.000 mm 11.2 km/h
17:45 27.8 °C 13.3 °C 27.5 °C 41% 1011.6 hPa 489 W/m² 0.0 mm 0.000 mm 8.5 km/h
17:50 27.9 °C 13.4 °C 27.9 °C 41% 1011.6 hPa 488 W/m² 0.0 mm 0.000 mm 3.9 km/h
17:55 27.9 °C 13.0 °C 27.6 °C 40% 1011.6 hPa 450 W/m² 0.0 mm 0.000 mm 8.2 km/h
18:00 27.8 °C 12.9 °C 27.5 °C 40% 1011.5 hPa 442 W/m² 0.0 mm 0.407 mm 8.1 km/h
18:05 27.7 °C 13.2 °C 27.7 °C 41% 1011.7 hPa 340 W/m² 0.0 mm 0.000 mm 4.3 km/h
18:10 27.7 °C 12.9 °C 27.7 °C 40% 1011.6 hPa 389 W/m² 0.0 mm 0.000 mm 4.9 km/h
18:15 27.7 °C 12.9 °C 27.6 °C 40% 1011.6 hPa 359 W/m² 0.0 mm 0.000 mm 6.9 km/h
18:20 27.5 °C 13.1 °C 27.3 °C 41% 1011.6 hPa 373 W/m² 0.0 mm 0.000 mm 7.3 km/h
18:25 27.4 °C 13.0 °C 27.4 °C 41% 1011.6 hPa 354 W/m² 0.0 mm 0.000 mm 4.9 km/h
18:30 27.4 °C 13.3 °C 27.4 °C 42% 1011.6 hPa 357 W/m² 0.0 mm 0.000 mm 3.4 km/h
18:35 27.4 °C 13.0 °C 27.4 °C 41% 1011.5 hPa 349 W/m² 0.0 mm 0.000 mm 4.9 km/h
18:40 27.3 °C 12.9 °C 27.3 °C 41% 1011.5 hPa 126 W/m² 0.0 mm 0.000 mm 2.0 km/h
18:45 27.3 °C 13.2 °C 27.3 °C 42% 1011.5 hPa 99 W/m² 0.0 mm 0.000 mm 2.2 km/h
18:50 27.3 °C 12.9 °C 27.2 °C 41% 1011.4 hPa 114 W/m² 0.0 mm 0.000 mm 6.8 km/h
18:55 27.3 °C 13.2 °C 27.3 °C 42% 1011.5 hPa 122 W/m² 0.0 mm 0.000 mm 3.0 km/h
19:00 27.2 °C 13.5 °C 27.2 °C 43% 1011.4 hPa 115 W/m² 0.0 mm 0.228 mm 4.1 km/h
19:05 27.2 °C 13.2 °C 27.2 °C 42% 1011.4 hPa 108 W/m² 0.0 mm 0.000 mm 4.2 km/h
19:10 27.1 °C 13.1 °C 27.1 °C 42% 1011.4 hPa 101 W/m² 0.0 mm 0.000 mm 5.9 km/h
19:15 27.1 °C 13.1 °C 27.1 °C 42% 1011.4 hPa 102 W/m² 0.0 mm 0.000 mm 4.6 km/h
19:20 27.1 °C 13.1 °C 27.1 °C 42% 1011.4 hPa 98 W/m² 0.0 mm 0.000 mm 3.8 km/h
19:25 27.0 °C 13.7 °C 27.0 °C 44% 1011.4 hPa 96 W/m² 0.0 mm 0.000 mm 3.2 km/h
19:30 27.0 °C 13.7 °C 27.0 °C 44% 1011.5 hPa 98 W/m² 0.0 mm 0.000 mm 3.8 km/h
19:35 26.9 °C 14.3 °C 26.9 °C 46% 1011.2 hPa 98 W/m² 0.0 mm 0.000 mm 3.9 km/h
19:40 26.9 °C 14.3 °C 26.9 °C 46% 1011.2 hPa 97 W/m² 0.0 mm 0.000 mm 3.4 km/h
19:45 26.8 °C 14.5 °C 26.8 °C 47% 1011.3 hPa 91 W/m² 0.0 mm 0.000 mm 4.4 km/h
19:50 26.7 °C 15.1 °C 26.7 °C 49% 1011.3 hPa 84 W/m² 0.0 mm 0.000 mm 4.8 km/h
19:55 26.6 °C 15.0 °C 26.6 °C 49% 1011.3 hPa 76 W/m² 0.0 mm 0.000 mm 4.1 km/h
20:00 26.4 °C 15.4 °C 26.4 °C 51% 1011.3 hPa 70 W/m² 0.0 mm 0.102 mm 3.8 km/h
20:05 26.2 °C 15.6 °C 26.2 °C 52% 1011.1 hPa 69 W/m² 0.0 mm 0.000 mm 4.3 km/h
20:10 26.1 °C 15.5 °C 26.1 °C 52% 1011.1 hPa 66 W/m² 0.0 mm 0.000 mm 5.4 km/h
20:15 25.9 °C 15.3 °C 25.9 °C 52% 1011.1 hPa 61 W/m² 0.0 mm 0.000 mm 5.3 km/h
20:20 25.8 °C 15.2 °C 25.8 °C 52% 1011.1 hPa 57 W/m² 0.0 mm 0.000 mm 5.4 km/h
20:25 25.7 °C 15.7 °C 25.7 °C 54% 1011.1 hPa 53 W/m² 0.0 mm 0.000 mm 4.8 km/h
20:30 25.5 °C 15.8 °C 25.5 °C 55% 1011.1 hPa 49 W/m² 0.0 mm 0.000 mm 4.7 km/h
20:35 25.3 °C 15.6 °C 25.3 °C 55% 1011.2 hPa 42 W/m² 0.0 mm 0.000 mm 3.1 km/h
20:40 25.2 °C 15.5 °C 25.2 °C 55% 1011.1 hPa 35 W/m² 0.0 mm 0.000 mm 1.2 km/h
20:45 25.1 °C 15.7 °C 25.1 °C 56% 1011.2 hPa 31 W/m² 0.0 mm 0.000 mm 0.6 km/h
20:50 25.0 °C 15.6 °C 25.0 °C 56% 1011.1 hPa 27 W/m² 0.0 mm 0.000 mm 0.0 km/h
20:55 24.8 °C 15.4 °C 24.8 °C 56% 1011.1 hPa 24 W/m² 0.0 mm 0.000 mm 0.0 km/h
21:00 24.7 °C 15.3 °C 24.7 °C 56% 1011.2 hPa 18 W/m² 0.0 mm 0.051 mm 0.0 km/h
21:05 24.5 °C 15.1 °C 24.5 °C 56% 1011.2 hPa 14 W/m² 0.0 mm 0.000 mm 0.0 km/h
21:10 24.3 °C 16.0 °C 24.3 °C 60% 1011.1 hPa 12 W/m² 0.0 mm 0.000 mm 0.7 km/h
21:15 24.2 °C 15.9 °C 24.2 °C 60% 1011.1 hPa 9 W/m² 0.0 mm 0.000 mm 0.1 km/h
21:20 23.9 °C 15.9 °C 23.9 °C 61% 1011.2 hPa 6 W/m² 0.0 mm 0.000 mm 0.0 km/h
21:25 23.7 °C 15.7 °C 23.7 °C 61% 1011.1 hPa 2 W/m² 0.0 mm 0.000 mm 0.0 km/h
21:30 23.6 °C 15.6 °C 23.6 °C 61% 1011.1 hPa 0 W/m² 0.0 mm 0.000 mm 0.0 km/h
21:35 23.3 °C 15.6 °C 23.3 °C 62% 1011.2 hPa 0 W/m² 0.0 mm 0.000 mm 0.0 km/h
21:40 23.1 °C 15.9 °C 23.1 °C 64% 1011.3 hPa 0 W/m² 0.0 mm 0.000 mm 0.0 km/h
21:45 22.7 °C 15.5 °C 22.7 °C 64% 1011.3 hPa 0 W/m² 0.0 mm 0.000 mm 0.0 km/h
21:50 22.4 °C 15.5 °C 22.4 °C 65% 1011.4 hPa 0 W/m² 0.0 mm 0.000 mm 0.0 km/h
21:55 22.2 °C 15.8 °C 22.2 °C 67% 1011.4 hPa 0 W/m² 0.0 mm 0.000 mm 0.0 km/h
22:00 21.9 °C 15.7 °C 21.9 °C 68% 1011.4 hPa 0 W/m² 0.0 mm 0.000 mm 0.0 km/h
22:05 21.6 °C 15.9 °C 21.6 °C 70% 1011.4 hPa 0 W/m² 0.0 mm 0.000 mm 0.5 km/h
22:10 21.4 °C 15.9 °C 21.4 °C 71% 1011.4 hPa 0 W/m² 0.0 mm 0.000 mm 0.0 km/h
22:15 21.2 °C 15.7 °C 21.2 °C 71% 1011.5 hPa 0 W/m² 0.0 mm 0.000 mm 0.0 km/h
22:20 20.9 °C 15.4 °C 20.9 °C 71% 1011.4 hPa 0 W/m² 0.0 mm 0.000 mm 0.0 km/h
22:25 20.6 °C 15.2 °C 20.6 °C 71% 1011.4 hPa 0 W/m² 0.0 mm 0.000 mm 0.5 km/h
22:30 20.2 °C 15.0 °C 20.2 °C 72% 1011.4 hPa 0 W/m² 0.0 mm 0.000 mm 0.5 km/h
22:35 19.9 °C 14.9 °C 19.9 °C 73% 1011.4 hPa 0 W/m² 0.0 mm 0.000 mm 0.0 km/h
22:40 19.7 °C 14.9 °C 19.7 °C 74% 1011.4 hPa 0 W/m² 0.0 mm 0.000 mm 0.0 km/h
22:45 19.6 °C 14.8 °C 19.6 °C 74% 1011.5 hPa 0 W/m² 0.0 mm 0.000 mm 0.0 km/h
22:50 19.5 °C 14.9 °C 19.5 °C 75% 1011.5 hPa 0 W/m² 0.0 mm 0.000 mm 0.0 km/h
22:55 19.3 °C 14.8 °C 19.3 °C 75% 1011.5 hPa 0 W/m² 0.0 mm 0.000 mm 0.0 km/h
23:00 19.2 °C 14.7 °C 19.2 °C 75% 1011.5 hPa 0 W/m² 0.0 mm 0.025 mm 0.0 km/h
23:05 19.1 °C 14.6 °C 19.1 °C 75% 1011.5 hPa 0 W/m² 0.0 mm 0.000 mm 0.0 km/h
23:10 18.9 °C 14.6 °C 18.9 °C 76% 1011.5 hPa 0 W/m² 0.0 mm 0.000 mm 0.0 km/h
23:15 18.8 °C 14.7 °C 18.8 °C 77% 1011.6 hPa 0 W/m² 0.0 mm 0.000 mm 0.0 km/h
23:20 18.6 °C 14.5 °C 18.6 °C 77% 1011.5 hPa 0 W/m² 0.0 mm 0.000 mm 0.6 km/h
23:25 18.5 °C 14.4 °C 18.5 °C 77% 1011.6 hPa 0 W/m² 0.0 mm 0.000 mm 0.0 km/h
23:30 18.4 °C 14.5 °C 18.4 °C 78% 1011.6 hPa 0 W/m² 0.0 mm 0.000 mm 0.0 km/h